Time;durP1;ratioP1;P1;durP2;ratioP2;P2;SDS_P1;SDS_P2;PMS_P1;PMS_P2;Temp;Humidity;BMP_temperature;BMP_pressure;BME280_temperature;BME280_humidity;BME280_pressure;Samples;Min_cycle;Max_cycle;Signal;HPM_P1;HPM_P2
2022/01/16 00:07:48;;;;;;;79.33;41.90;;;;;0.90;101891.00;;;;9905062;29;20238;-78
2022/01/16 00:12:52;;;;;;;82.37;41.57;;;;;0.80;101869.00;;;;9928752;29;20214;-78
2022/01/16 00:18:10;;;;;;;84.50;40.77;;;;;0.80;101863.00;;;;9926547;29;20205;-78
2022/01/16 00:23:11;;;;;;;85.70;40.67;;;;;0.90;101877.00;;;;9908055;29;20202;-78
2022/01/16 00:28:13;;;;;;;87.00;42.17;;;;;0.90;101864.00;;;;9895989;30;20607;-79
2022/01/16 00:33:16;;;;;;;87.10;44.07;;;;;0.90;101870.00;;;;9898598;29;20203;-79
2022/01/16 00:38:18;;;;;;;83.33;42.10;;;;;0.90;101879.00;;;;9918365;29;20240;-78
2022/01/16 00:43:20;;;;;;;87.50;42.57;;;;;1.00;101887.00;;;;9888815;29;20211;-77
2022/01/16 00:48:22;;;;;;;92.33;44.97;;;;;1.10;101849.00;;;;9888976;29;20629;-79
2022/01/16 00:53:24;;;;;;;99.20;48.10;;;;;1.30;101876.00;;;;9888294;29;20702;-79
2022/01/16 00:58:26;;;;;;;93.70;44.00;;;;;1.40;101834.00;;;;9902920;29;20210;-79
2022/01/16 01:03:30;;;;;;;93.43;44.87;;;;;1.50;101843.00;;;;9900779;29;20211;-78
2022/01/16 01:08:32;;;;;;;91.63;43.73;;;;;1.60;101843.00;;;;9880164;29;20235;-78
2022/01/16 01:13:54;;;;;;;89.83;45.43;;;;;1.70;101845.00;;;;9866135;29;20200;-79
2022/01/16 01:18:55;;;;;;;98.00;46.47;;;;;1.70;101839.00;;;;9907054;29;20211;-79
2022/01/16 01:23:58;;;;;;;98.53;47.53;;;;;1.80;101852.00;;;;9916219;29;20219;-79
2022/01/16 01:29:00;;;;;;;111.27;49.47;;;;;2.00;101846.00;;;;9916712;29;20695;-78
2022/01/16 01:34:03;;;;;;;106.53;48.63;;;;;2.10;101807.00;;;;9917089;29;20260;-79
2022/01/16 01:39:05;;;;;;;113.27;50.10;;;;;2.10;101765.00;;;;9902772;29;20202;-78
2022/01/16 01:54:48;;;;;;;117.07;53.77;;;;;2.40;101834.00;;;;9901982;29;20191;-79
2022/01/16 01:59:51;;;;;;;122.03;55.00;;;;;2.50;101836.00;;;;9902186;29;20187;-79
2022/01/16 02:04:52;;;;;;;113.43;52.30;;;;;2.60;101853.00;;;;9917683;29;20210;-78
2022/01/16 02:09:54;;;;;;;113.43;50.70;;;;;2.60;101848.00;;;;9923414;29;20222;-79
2022/01/16 02:15:07;;;;;;;101.20;46.63;;;;;2.60;101851.00;;;;9893189;29;20251;-78
2022/01/16 02:36:28;;;;;;;97.67;46.53;;;;;2.70;101876.00;;;;9923795;29;20232;-79
2022/01/16 02:41:30;;;;;;;99.67;46.77;;;;;2.70;101875.00;;;;9922867;29;20280;-79
2022/01/16 02:51:35;;;;;;;95.60;47.23;;;;;2.80;101830.00;;;;9932275;29;20640;-78
2022/01/16 02:56:39;;;;;;;89.13;46.57;;;;;2.90;101838.00;;;;9929890;29;20285;-79
2022/01/16 03:01:41;;;;;;;96.03;44.50;;;;;2.90;101834.00;;;;9959416;29;20191;-78
2022/01/16 03:06:43;;;;;;;95.97;43.90;;;;;2.90;101828.00;;;;9944359;29;20271;-79
2022/01/16 03:11:49;;;;;;;98.60;45.57;;;;;2.90;101816.00;;;;9922045;29;20231;-78
2022/01/16 03:16:53;;;;;;;85.00;43.70;;;;;2.90;101810.00;;;;9920299;29;20218;-78
2022/01/16 03:21:57;;;;;;;86.97;42.83;;;;;2.90;101818.00;;;;9921670;29;20197;-78
2022/01/16 03:27:02;;;;;;;87.10;42.40;;;;;2.90;101810.00;;;;9906919;29;20691;-78
2022/01/16 03:32:06;;;;;;;86.93;42.30;;;;;3.00;101803.00;;;;9898886;30;20212;-79
2022/01/16 03:37:08;;;;;;;81.70;43.20;;;;;2.90;101805.00;;;;9869082;30;20207;-78
2022/01/16 03:42:10;;;;;;;89.77;41.60;;;;;3.00;101817.00;;;;9868775;30;20204;-78
2022/01/16 03:47:12;;;;;;;92.20;42.73;;;;;3.00;101798.00;;;;9868909;30;20634;-78
2022/01/16 03:52:14;;;;;;;90.10;43.03;;;;;2.90;101796.00;;;;9883218;30;20265;-78
2022/01/16 03:57:16;;;;;;;89.37;43.13;;;;;2.90;101810.00;;;;9883769;30;20229;-78
2022/01/16 04:02:18;;;;;;;92.60;44.37;;;;;2.90;101809.00;;;;9896002;29;20210;-78
2022/01/16 04:07:27;;;;;;;82.30;42.33;;;;;3.00;101818.00;;;;9920081;29;20283;-78
2022/01/16 04:12:29;;;;;;;80.73;40.43;;;;;3.00;101818.00;;;;9920207;29;20760;-78
2022/01/16 04:17:31;;;;;;;84.60;41.97;;;;;2.90;101821.00;;;;9915512;29;20272;-78
2022/01/16 04:22:33;;;;;;;86.63;41.80;;;;;2.90;101820.00;;;;9924385;29;20219;-78
2022/01/16 04:27:35;;;;;;;92.37;43.10;;;;;2.80;101827.00;;;;9904334;29;20207;-78
2022/01/16 04:32:38;;;;;;;84.13;40.63;;;;;2.80;101837.00;;;;9889569;29;20243;-78
2022/01/16 04:37:41;;;;;;;86.67;42.20;;;;;2.70;101841.00;;;;9919129;29;20203;-78
2022/01/16 04:48:23;;;;;;;88.77;41.23;;;;;2.50;101844.00;;;;9912856;29;20221;-78
2022/01/16 04:53:25;;;;;;;83.83;41.37;;;;;2.50;101854.00;;;;9918844;29;20209;-78
2022/01/16 04:58:27;;;;;;;86.80;43.33;;;;;2.40;101845.00;;;;9918889;29;20202;-78
2022/01/16 05:03:31;;;;;;;79.93;40.13;;;;;2.30;101852.00;;;;9895154;30;20207;-78
2022/01/16 05:08:33;;;;;;;87.17;40.00;;;;;2.20;101837.00;;;;9890848;29;20338;-78
2022/01/16 05:18:39;;;;;;;88.27;43.07;;;;;2.20;101859.00;;;;9933280;29;20206;-78
2022/01/16 05:23:42;;;;;;;82.67;38.30;;;;;2.20;101847.00;;;;9925418;29;20222;-78
2022/01/16 05:28:45;;;;;;;95.97;45.03;;;;;2.30;101861.00;;;;9940471;29;20747;-78
2022/01/16 05:33:47;;;;;;;97.00;43.03;;;;;2.40;101861.00;;;;9925585;29;20625;-78
2022/01/16 05:38:53;;;;;;;97.80;43.03;;;;;2.40;101860.00;;;;9954749;29;20218;-78
2022/01/16 05:43:55;;;;;;;99.07;40.73;;;;;2.50;101859.00;;;;9953850;29;20225;-78
2022/01/16 05:48:57;;;;;;;96.33;39.50;;;;;2.50;101860.00;;;;9909481;29;20314;-78
2022/01/16 05:53:58;;;;;;;92.03;40.23;;;;;2.60;101876.00;;;;9904893;29;20206;-78
2022/01/16 05:59:01;;;;;;;98.57;41.27;;;;;2.60;101870.00;;;;9916618;29;20208;-78
2022/01/16 06:04:04;;;;;;;98.23;40.60;;;;;2.60;101857.00;;;;9916620;29;20211;-78
2022/01/16 06:09:05;;;;;;;92.50;39.93;;;;;2.70;101861.00;;;;9901324;29;20262;-78
2022/01/16 06:14:07;;;;;;;98.07;41.40;;;;;2.70;101874.00;;;;9917020;29;20206;-77
2022/01/16 06:19:09;;;;;;;105.83;41.50;;;;;2.80;101883.00;;;;9920207;29;20680;-78
2022/01/16 06:24:12;;;;;;;111.57;43.40;;;;;2.80;101893.00;;;;9916020;29;20328;-78
2022/01/16 06:29:15;;;;;;;98.63;41.67;;;;;2.80;101887.00;;;;9915072;29;20215;-77
2022/01/16 06:34:18;;;;;;;95.97;40.00;;;;;2.90;101895.00;;;;9915445;29;20199;-78
2022/01/16 06:39:19;;;;;;;98.03;40.13;;;;;2.90;101904.00;;;;9858127;29;20195;-78
2022/01/16 06:44:22;;;;;;;106.80;40.63;;;;;2.90;101909.00;;;;9892717;30;20257;-78
2022/01/16 06:49:24;;;;;;;101.63;41.47;;;;;2.90;101913.00;;;;9865107;30;20254;-77
2022/01/16 06:54:26;;;;;;;105.17;41.30;;;;;3.00;101928.00;;;;9914689;29;20204;-77
2022/01/16 06:59:28;;;;;;;96.20;40.53;;;;;3.00;101932.00;;;;9883980;30;20204;-78
2022/01/16 07:04:30;;;;;;;106.13;41.97;;;;;3.10;101934.00;;;;9869996;30;20211;-78
2022/01/16 07:09:32;;;;;;;119.90;43.93;;;;;3.10;101951.00;;;;9909319;29;20238;-78
2022/01/16 07:14:34;;;;;;;91.20;39.07;;;;;3.10;101948.00;;;;9958893;29;20259;-77
2022/01/16 07:19:36;;;;;;;96.73;40.97;;;;;3.00;101965.00;;;;9943976;29;20212;-78
2022/01/16 07:24:38;;;;;;;104.73;41.83;;;;;3.00;101957.00;;;;9943372;29;20213;-77
2022/01/16 07:29:39;;;;;;;97.83;41.27;;;;;3.00;101970.00;;;;9918653;29;20256;-77
2022/01/16 07:34:42;;;;;;;96.40;41.73;;;;;3.10;101980.00;;;;9933593;29;20198;-78
2022/01/16 07:39:44;;;;;;;97.83;38.07;;;;;3.10;101963.00;;;;9938658;29;20664;-78
2022/01/16 07:44:46;;;;;;;86.93;35.20;;;;;3.10;101984.00;;;;9920494;29;20268;-78
2022/01/16 07:49:48;;;;;;;61.43;24.70;;;;;3.10;101986.00;;;;9921201;29;20222;-78
2022/01/16 07:55:10;;;;;;;85.20;35.73;;;;;3.10;101991.00;;;;9920703;29;20198;-78
2022/01/16 08:00:13;;;;;;;85.80;35.10;;;;;3.10;101992.00;;;;9904933;29;20211;-77
2022/01/16 08:05:18;;;;;;;79.20;36.60;;;;;3.20;101991.00;;;;9919838;29;20207;-78
2022/01/16 08:10:20;;;;;;;84.70;35.97;;;;;3.20;101996.00;;;;9920246;29;20223;-78
2022/01/16 08:15:22;;;;;;;74.57;33.23;;;;;3.30;102004.00;;;;9905694;29;20614;-78
2022/01/16 08:20:24;;;;;;;80.40;35.13;;;;;3.30;102001.00;;;;9905202;29;20631;-78
2022/01/16 08:25:26;;;;;;;83.93;36.03;;;;;3.30;101987.00;;;;9890171;29;20214;-78
2022/01/16 08:30:28;;;;;;;70.57;31.33;;;;;3.30;101984.00;;;;9921210;29;20207;-78
2022/01/16 08:35:30;;;;;;;76.47;33.67;;;;;3.30;101990.00;;;;9925011;29;20207;-78
2022/01/16 08:40:32;;;;;;;67.50;30.83;;;;;3.40;101992.00;;;;9904880;29;20203;-77
2022/01/16 08:45:36;;;;;;;78.10;33.23;;;;;3.40;101987.00;;;;9908393;29;20256;-78
2022/01/16 08:50:38;;;;;;;82.63;33.50;;;;;3.50;102008.00;;;;9906916;29;20277;-78
2022/01/16 08:55:40;;;;;;;73.77;31.87;;;;;3.50;102010.00;;;;9884280;29;20208;-78
2022/01/16 09:00:43;;;;;;;80.30;33.33;;;;;3.50;102029.00;;;;9895760;29;20278;-78
2022/01/16 09:05:46;;;;;;;77.20;33.60;;;;;3.50;102015.00;;;;9909285;29;20240;-78
2022/01/16 09:10:48;;;;;;;75.23;34.60;;;;;3.50;102026.00;;;;9916109;29;20695;-77
2022/01/16 09:15:51;;;;;;;78.03;34.10;;;;;3.60;102034.00;;;;9927578;29;20203;-78
2022/01/16 09:20:55;;;;;;;81.37;35.30;;;;;3.60;102045.00;;;;9906323;29;20334;-77
2022/01/16 09:25:57;;;;;;;74.20;33.40;;;;;3.60;102050.00;;;;9916312;29;20203;-76
2022/01/16 09:30:59;;;;;;;78.30;34.27;;;;;3.60;102053.00;;;;9915981;29;20292;-77
2022/01/16 09:36:04;;;;;;;73.63;33.27;;;;;3.60;102051.00;;;;9915447;29;20267;-77
2022/01/16 09:41:06;;;;;;;73.50;30.67;;;;;3.60;102062.00;;;;9917672;29;20893;-77
2022/01/16 09:46:08;;;;;;;84.23;35.27;;;;;3.70;102069.00;;;;9894643;29;20208;-77
2022/01/16 09:51:10;;;;;;;70.20;32.80;;;;;3.80;102076.00;;;;9909857;29;20282;-78
2022/01/16 09:56:13;;;;;;;82.03;34.60;;;;;3.80;102080.00;;;;9866290;30;20226;-78
2022/01/16 10:01:14;;;;;;;72.93;31.77;;;;;3.80;102084.00;;;;9891362;29;20213;-78
2022/01/16 10:06:23;;;;;;;67.83;30.80;;;;;3.80;102092.00;;;;9916892;29;20223;-78
2022/01/16 10:11:39;;;;;;;66.70;33.43;;;;;3.80;102089.00;;;;9902239;29;20233;-78
2022/01/16 10:17:11;;;;;;;74.03;34.10;;;;;3.80;102097.00;;;;9918534;29;20207;-78
2022/01/16 10:22:14;;;;;;;58.60;28.63;;;;;3.90;102095.00;;;;9885941;29;20261;-79
2022/01/16 10:27:19;;;;;;;66.47;31.63;;;;;3.90;102098.00;;;;9890480;29;20333;-79
2022/01/16 10:32:27;;;;;;;68.33;32.43;;;;;3.90;102101.00;;;;9927762;29;20210;-79
2022/01/16 10:37:30;;;;;;;69.60;30.70;;;;;4.00;102103.00;;;;9911261;29;20195;-79
2022/01/16 10:42:41;;;;;;;72.97;28.90;;;;;4.00;102106.00;;;;9893466;29;20256;-78
2022/01/16 10:47:51;;;;;;;49.77;24.17;;;;;3.90;102099.00;;;;9937088;29;20259;-78
2022/01/16 10:53:03;;;;;;;51.00;27.07;;;;;4.10;102099.00;;;;9918340;29;20219;-78
2022/01/16 10:58:09;;;;;;;44.93;24.10;;;;;4.10;102101.00;;;;9952014;29;20211;-78
2022/01/16 11:03:13;;;;;;;50.10;24.83;;;;;4.20;102111.00;;;;9893687;29;20329;-78
2022/01/16 11:08:18;;;;;;;53.57;25.07;;;;;4.20;102118.00;;;;9904586;29;20762;-79
2022/01/16 11:13:23;;;;;;;47.63;23.90;;;;;4.30;102098.00;;;;9914085;29;20263;-78
2022/01/16 11:18:26;;;;;;;40.63;21.53;;;;;4.30;102115.00;;;;9917889;29;20234;-78
2022/01/16 11:23:45;;;;;;;39.53;21.70;;;;;4.40;102109.00;;;;9892929;29;20656;-78
2022/01/16 11:28:50;;;;;;;41.97;21.43;;;;;4.60;102097.00;;;;9906705;29;20256;-78
2022/01/16 11:33:52;;;;;;;43.30;20.80;;;;;4.70;102126.00;;;;9919645;29;20198;-78
2022/01/16 11:39:06;;;;;;;40.70;20.73;;;;;4.60;102116.00;;;;9935249;29;20214;-78
2022/01/16 11:44:24;;;;;;;46.10;23.27;;;;;4.60;102113.00;;;;9876870;29;20207;-78
2022/01/16 11:49:42;;;;;;;47.00;25.47;;;;;4.60;102128.00;;;;9912396;29;20276;-78
2022/01/16 11:54:46;;;;;;;51.77;25.10;;;;;4.50;102120.00;;;;9910523;29;20203;-78
2022/01/16 12:00:05;;;;;;;55.10;27.10;;;;;4.60;102121.00;;;;9900412;29;20191;-78
2022/01/16 12:05:26;;;;;;;49.10;25.43;;;;;4.50;102107.00;;;;9891253;29;20203;-78
2022/01/16 12:10:37;;;;;;;52.63;25.33;;;;;4.60;102116.00;;;;9907171;29;20219;-78
2022/01/16 12:15:39;;;;;;;50.27;26.20;;;;;4.80;102107.00;;;;9904135;29;20563;-78
2022/01/16 12:20:41;;;;;;;56.13;26.47;;;;;4.90;102104.00;;;;9919591;29;20247;-78
2022/01/16 12:25:55;;;;;;;51.40;27.23;;;;;4.80;102117.00;;;;9919880;29;20199;-78
2022/01/16 12:31:07;;;;;;;56.30;26.87;;;;;4.60;102116.00;;;;9904603;29;20207;-78
2022/01/16 12:36:09;;;;;;;49.97;25.57;;;;;4.50;102118.00;;;;9905877;29;20191;-78
2022/01/16 12:41:27;;;;;;;46.57;24.17;;;;;4.70;102109.00;;;;9906273;29;20286;-78
2022/01/16 12:46:41;;;;;;;46.97;25.13;;;;;4.70;102106.00;;;;9904909;29;20618;-78
2022/01/16 12:51:47;;;;;;;50.63;26.27;;;;;4.60;102108.00;;;;9945480;29;20210;-78
2022/01/16 12:56:53;;;;;;;51.50;23.50;;;;;4.60;102106.00;;;;9913085;29;20260;-78
2022/01/16 13:02:15;;;;;;;57.83;26.43;;;;;4.50;102099.00;;;;9912642;29;20202;-77
2022/01/16 13:07:17;;;;;;;46.00;22.97;;;;;4.50;102108.00;;;;9925113;29;20259;-78
2022/01/16 13:12:20;;;;;;;52.37;25.47;;;;;4.50;102100.00;;;;9912275;29;20273;-78
2022/01/16 13:17:22;;;;;;;50.50;22.70;;;;;4.50;102099.00;;;;9935864;29;20710;-78
2022/01/16 13:22:29;;;;;;;54.03;26.13;;;;;4.50;102096.00;;;;9903324;29;20647;-77
2022/01/16 13:27:37;;;;;;;58.37;25.07;;;;;4.60;102096.00;;;;9902470;29;20252;-77
2022/01/16 13:32:41;;;;;;;53.83;23.87;;;;;4.50;102113.00;;;;9895636;29;20215;-77
2022/01/16 13:37:44;;;;;;;46.00;24.50;;;;;4.50;102103.00;;;;9901829;29;20597;-78
2022/01/16 13:43:02;;;;;;;58.63;25.87;;;;;4.50;102103.00;;;;9902179;29;20267;-78
2022/01/16 13:48:28;;;;;;;54.27;25.33;;;;;4.60;102113.00;;;;9937501;29;20617;-78
2022/01/16 13:53:33;;;;;;;50.20;24.17;;;;;4.60;102105.00;;;;9901852;29;20237;-77
2022/01/16 13:58:56;;;;;;;55.20;24.93;;;;;4.70;102116.00;;;;9934053;29;20209;-77
2022/01/16 14:04:01;;;;;;;59.37;26.27;;;;;4.70;102113.00;;;;9924545;29;20206;-77
2022/01/16 14:09:05;;;;;;;47.63;23.30;;;;;4.70;102107.00;;;;9908578;29;20245;-76
2022/01/16 14:14:07;;;;;;;53.77;25.40;;;;;4.70;102101.00;;;;9922988;29;20198;-77
2022/01/16 14:19:12;;;;;;;53.70;24.60;;;;;4.70;102106.00;;;;9908704;29;20207;-77
2022/01/16 14:24:14;;;;;;;47.90;22.07;;;;;4.90;102080.00;;;;9894162;29;20203;-78
2022/01/16 14:29:17;;;;;;;47.73;23.90;;;;;4.80;102100.00;;;;9945265;29;20658;-78
2022/01/16 14:34:21;;;;;;;51.30;23.93;;;;;4.70;102102.00;;;;9903102;29;20199;-78
2022/01/16 14:39:24;;;;;;;49.20;23.53;;;;;4.60;102112.00;;;;9922865;29;20211;-78
2022/01/16 14:44:28;;;;;;;50.07;23.93;;;;;4.60;102131.00;;;;9906723;29;20262;-78
2022/01/16 14:49:30;;;;;;;52.97;25.10;;;;;4.50;102144.00;;;;9921775;29;20285;-78
2022/01/16 14:54:32;;;;;;;47.30;24.97;;;;;4.50;102140.00;;;;9921274;29;20904;-78
2022/01/16 14:59:34;;;;;;;57.50;25.50;;;;;4.50;102136.00;;;;9905984;29;20207;-78
2022/01/16 15:04:37;;;;;;;55.57;26.23;;;;;4.50;102160.00;;;;9921123;29;20205;-78
2022/01/16 15:09:38;;;;;;;54.80;26.13;;;;;4.40;102173.00;;;;9922079;29;20238;-77
2022/01/16 15:14:41;;;;;;;58.47;25.57;;;;;4.40;102187.00;;;;9904036;29;20664;-78
2022/01/16 15:19:44;;;;;;;58.33;26.10;;;;;4.40;102180.00;;;;9920943;29;20871;-78
2022/01/16 15:24:47;;;;;;;57.23;25.80;;;;;4.40;102190.00;;;;9904343;29;20679;-78
2022/01/16 15:29:50;;;;;;;61.47;27.10;;;;;4.30;102193.00;;;;9900265;29;20684;-78
2022/01/16 15:34:52;;;;;;;63.50;27.63;;;;;4.30;102203.00;;;;9898893;30;20211;-77
2022/01/16 15:39:57;;;;;;;68.20;27.57;;;;;4.30;102215.00;;;;9890330;29;20268;-78
2022/01/16 15:44:59;;;;;;;54.13;26.63;;;;;4.30;102214.00;;;;9920987;29;20199;-78
2022/01/16 15:50:03;;;;;;;54.37;26.13;;;;;4.30;102215.00;;;;9914242;29;20630;-78
2022/01/16 15:55:05;;;;;;;65.13;27.23;;;;;4.30;102236.00;;;;9958099;29;20244;-78
2022/01/16 16:00:08;;;;;;;58.33;27.10;;;;;4.30;102231.00;;;;9957880;29;20736;-78
2022/01/16 16:05:18;;;;;;;65.77;28.07;;;;;4.30;102233.00;;;;9957827;29;20221;-78
2022/01/16 16:10:21;;;;;;;64.67;29.07;;;;;4.30;102244.00;;;;9895824;30;20243;-78
2022/01/16 16:15:24;;;;;;;62.27;26.27;;;;;4.30;102243.00;;;;9883316;30;20192;-78
2022/01/16 16:20:26;;;;;;;61.97;27.67;;;;;4.20;102250.00;;;;9901647;29;20203;-78
2022/01/16 16:25:30;;;;;;;64.43;28.33;;;;;4.30;102258.00;;;;9922586;29;20222;-79
2022/01/16 16:30:35;;;;;;;73.43;28.73;;;;;4.20;102255.00;;;;9912191;29;20215;-79
2022/01/16 16:35:37;;;;;;;67.73;29.13;;;;;4.20;102262.00;;;;9905261;29;20305;-79
2022/01/16 16:40:38;;;;;;;59.60;26.23;;;;;4.30;102259.00;;;;9890196;29;20206;-78
2022/01/16 16:45:40;;;;;;;61.07;28.10;;;;;4.30;102257.00;;;;9904750;29;20202;-78
2022/01/16 16:50:43;;;;;;;65.87;30.37;;;;;4.30;102278.00;;;;9890521;29;20219;-79
2022/01/16 16:55:45;;;;;;;69.70;29.40;;;;;4.30;102275.00;;;;9904185;29;20210;-78
2022/01/16 17:00:48;;;;;;;74.07;30.67;;;;;4.30;102278.00;;;;9918935;29;20195;-78
2022/01/16 17:05:50;;;;;;;68.73;29.87;;;;;4.30;102276.00;;;;9901440;29;20203;-78
2022/01/16 17:10:52;;;;;;;74.00;31.80;;;;;4.30;102270.00;;;;9899342;29;20692;-78
2022/01/16 17:15:54;;;;;;;71.90;30.87;;;;;4.30;102285.00;;;;9877936;29;20204;-78
2022/01/16 17:20:57;;;;;;;71.27;30.90;;;;;4.30;102296.00;;;;9894505;29;20225;-79
2022/01/16 17:25:59;;;;;;;74.70;31.50;;;;;4.30;102320.00;;;;9894700;30;20200;-79
2022/01/16 17:31:02;;;;;;;72.23;31.30;;;;;4.30;102327.00;;;;9906468;29;20240;-79
2022/01/16 17:36:05;;;;;;;71.70;32.13;;;;;4.30;102342.00;;;;9907317;29;20210;-80
2022/01/16 17:41:07;;;;;;;76.77;32.10;;;;;4.30;102355.00;;;;9891395;29;20195;-79
2022/01/16 17:46:09;;;;;;;81.37;32.73;;;;;4.30;102351.00;;;;9942401;29;20579;-79
2022/01/16 17:51:11;;;;;;;72.17;31.23;;;;;4.30;102353.00;;;;9925676;29;20287;-79
2022/01/16 17:56:13;;;;;;;75.30;30.33;;;;;4.30;102358.00;;;;9918238;29;20202;-79
2022/01/16 18:01:17;;;;;;;81.70;33.27;;;;;4.30;102353.00;;;;9937584;29;20194;-79
2022/01/16 18:06:19;;;;;;;83.50;34.57;;;;;4.40;102358.00;;;;9934706;29;20334;-79
2022/01/16 18:11:21;;;;;;;75.73;31.50;;;;;4.40;102361.00;;;;9902021;29;20226;-79
2022/01/16 18:16:23;;;;;;;81.17;33.50;;;;;4.40;102377.00;;;;9901924;29;20268;-79
2022/01/16 18:21:26;;;;;;;83.23;32.13;;;;;4.40;102382.00;;;;9916382;29;20908;-79
2022/01/16 18:26:28;;;;;;;80.80;34.83;;;;;4.40;102396.00;;;;9916415;29;20202;-79
2022/01/16 18:31:35;;;;;;;84.97;34.37;;;;;4.40;102410.00;;;;9928426;29;20707;-79
2022/01/16 18:36:41;;;;;;;91.43;38.97;;;;;4.40;102410.00;;;;9886519;29;20198;-79
2022/01/16 18:41:43;;;;;;;91.47;34.70;;;;;4.40;102432.00;;;;9876999;29;20203;-79
2022/01/16 18:46:46;;;;;;;94.27;38.43;;;;;4.40;102440.00;;;;9901440;29;20205;-79
2022/01/16 18:51:49;;;;;;;95.13;38.33;;;;;4.40;102452.00;;;;9922934;29;20211;-79
2022/01/16 18:57:11;;;;;;;86.87;35.87;;;;;4.40;102459.00;;;;9881532;30;20208;-79
2022/01/16 19:02:13;;;;;;;82.13;34.17;;;;;4.40;102456.00;;;;9877903;29;20198;-79
2022/01/16 19:07:16;;;;;;;86.30;35.43;;;;;4.30;102451.00;;;;9944254;29;20707;-79
2022/01/16 19:12:18;;;;;;;86.83;35.90;;;;;4.30;102465.00;;;;9941970;29;20215;-79
2022/01/16 19:17:19;;;;;;;87.97;36.00;;;;;4.30;102476.00;;;;9930616;29;20259;-79
2022/01/16 19:22:22;;;;;;;86.87;35.40;;;;;4.40;102482.00;;;;9959955;29;20195;-79
2022/01/16 19:27:23;;;;;;;86.33;36.43;;;;;4.30;102471.00;;;;9946871;29;20255;-79
2022/01/16 19:32:25;;;;;;;88.77;35.60;;;;;4.30;102467.00;;;;9892452;29;20218;-79
2022/01/16 19:37:29;;;;;;;90.57;34.97;;;;;4.30;102488.00;;;;9918910;29;20206;-78
2022/01/16 19:42:31;;;;;;;104.07;37.90;;;;;4.30;102499.00;;;;9907208;29;20207;-79
2022/01/16 19:47:33;;;;;;;93.83;39.33;;;;;4.30;102492.00;;;;9945888;29;20194;-79
2022/01/16 19:52:35;;;;;;;106.60;37.10;;;;;4.30;102486.00;;;;9925243;29;20215;-79
2022/01/16 19:57:37;;;;;;;102.60;38.90;;;;;4.30;102496.00;;;;9921003;29;20203;-79
2022/01/16 20:02:41;;;;;;;96.47;38.10;;;;;4.30;102488.00;;;;9929620;29;20202;-79
2022/01/16 20:07:44;;;;;;;97.13;37.80;;;;;4.40;102507.00;;;;9939096;29;20295;-78
2022/01/16 20:12:46;;;;;;;131.17;59.20;;;;;4.40;102511.00;;;;9920709;29;20223;-79
2022/01/16 20:17:55;;;;;;;99.70;38.40;;;;;4.40;102517.00;;;;9920306;29;20202;-79
2022/01/16 20:22:59;;;;;;;103.83;39.83;;;;;4.40;102516.00;;;;9904814;29;20214;-79
2022/01/16 20:28:03;;;;;;;101.87;38.53;;;;;4.30;102530.00;;;;9919680;29;20210;-79
2022/01/16 20:33:05;;;;;;;95.07;36.70;;;;;4.30;102541.00;;;;9920141;29;20210;-78
2022/01/16 20:38:07;;;;;;;100.90;39.87;;;;;4.30;102552.00;;;;9919803;29;20214;-79
2022/01/16 20:43:09;;;;;;;96.57;36.17;;;;;4.30;102556.00;;;;9919456;29;20660;-78
2022/01/16 20:48:13;;;;;;;95.53;36.57;;;;;4.30;102557.00;;;;9934884;29;20207;-79
2022/01/16 20:53:15;;;;;;;110.47;35.90;;;;;4.30;102577.00;;;;9890027;29;20246;-79
2022/01/16 20:58:18;;;;;;;102.37;38.03;;;;;4.30;102568.00;;;;9889329;29;20203;-79
2022/01/16 21:03:20;;;;;;;93.60;35.20;;;;;4.30;102577.00;;;;9907159;29;20199;-78
2022/01/16 21:08:24;;;;;;;101.53;38.50;;;;;4.30;102580.00;;;;9922121;29;20230;-79
2022/01/16 21:13:27;;;;;;;99.43;39.10;;;;;4.30;102590.00;;;;9903656;29;20222;-78
2022/01/16 21:18:29;;;;;;;102.70;38.37;;;;;4.30;102587.00;;;;9903777;29;20211;-78
2022/01/16 21:23:32;;;;;;;98.03;38.33;;;;;4.30;102577.00;;;;9903236;29;20257;-78
2022/01/16 21:28:35;;;;;;;101.03;39.27;;;;;4.30;102582.00;;;;9906251;29;20209;-79
2022/01/16 21:33:37;;;;;;;112.87;40.03;;;;;4.30;102594.00;;;;9919770;29;20752;-78
2022/01/16 21:38:39;;;;;;;103.03;38.90;;;;;4.40;102583.00;;;;9917271;29;20285;-78
2022/01/16 21:43:41;;;;;;;110.33;40.60;;;;;4.40;102589.00;;;;9931965;29;20233;-79
2022/01/16 21:48:43;;;;;;;97.70;37.70;;;;;4.40;102603.00;;;;9925587;29;20202;-79
2022/01/16 21:53:45;;;;;;;115.13;40.63;;;;;4.40;102609.00;;;;9926311;29;20578;-78
2022/01/16 21:58:47;;;;;;;109.63;39.47;;;;;4.50;102607.00;;;;9913799;29;20225;-79
2022/01/16 22:03:48;;;;;;;115.63;41.30;;;;;4.50;102604.00;;;;9930985;29;20202;-79
2022/01/16 22:08:51;;;;;;;106.87;38.80;;;;;4.50;102598.00;;;;9893421;29;20230;-79
2022/01/16 22:13:53;;;;;;;96.43;38.83;;;;;4.50;102601.00;;;;9902606;29;20229;-79
2022/01/16 22:18:55;;;;;;;103.07;41.67;;;;;4.50;102613.00;;;;9916671;29;20187;-79
2022/01/16 22:23:57;;;;;;;105.67;41.57;;;;;4.50;102608.00;;;;9935679;29;20187;-79
2022/01/16 22:29:03;;;;;;;116.97;40.07;;;;;4.50;102613.00;;;;9895103;29;20730;-79
2022/01/16 22:34:04;;;;;;;105.57;39.30;;;;;4.50;102621.00;;;;9910009;29;20219;-79
2022/01/16 22:39:07;;;;;;;114.00;40.10;;;;;4.50;102627.00;;;;9886862;29;20214;-79
2022/01/16 22:44:09;;;;;;;101.13;40.20;;;;;4.50;102635.00;;;;9894248;29;20203;-79
2022/01/16 22:49:17;;;;;;;107.37;41.30;;;;;4.50;102632.00;;;;9894307;29;20226;-79
2022/01/16 22:54:20;;;;;;;111.17;40.77;;;;;4.60;102639.00;;;;9932211;29;20217;-79
2022/01/16 22:59:23;;;;;;;112.50;39.73;;;;;4.60;102646.00;;;;9946412;29;20211;-79
2022/01/16 23:04:25;;;;;;;113.37;41.17;;;;;4.60;102638.00;;;;9911467;29;20572;-79
2022/01/16 23:09:27;;;;;;;117.10;40.43;;;;;4.60;102643.00;;;;9922813;29;20234;-79
2022/01/16 23:14:29;;;;;;;108.80;40.20;;;;;4.60;102645.00;;;;9923335;29;20219;-79
2022/01/16 23:19:31;;;;;;;101.53;37.87;;;;;4.60;102656.00;;;;9922455;29;20203;-79
2022/01/16 23:24:33;;;;;;;100.50;37.87;;;;;4.60;102658.00;;;;9933420;29;20269;-79
2022/01/16 23:29:35;;;;;;;108.13;38.90;;;;;4.60;102668.00;;;;9897128;29;20199;-79
2022/01/16 23:34:37;;;;;;;102.40;39.27;;;;;4.60;102671.00;;;;9899260;29;20579;-79
2022/01/16 23:39:39;;;;;;;96.03;39.53;;;;;4.70;102684.00;;;;9893164;29;20691;-79
2022/01/16 23:44:41;;;;;;;115.77;41.43;;;;;4.70;102689.00;;;;9906663;29;20199;-78
2022/01/16 23:49:43;;;;;;;112.00;39.93;;;;;4.70;102683.00;;;;9919596;29;20289;-79
2022/01/16 23:54:45;;;;;;;112.37;39.27;;;;;4.70;102680.00;;;;9957738;29;20214;-79
2022/01/16 23:59:47;;;;;;;110.57;41.47;;;;;4.70;102677.00;;;;9958304;29;20203;-79
